Pagrindinis puslapis
METAR-TAF:

METAR-TAF

Oro uostai :

Ängelholm–Helsingborg

Helsingborgas, Švedija

platuma: 56-17-46N, ilguma: 012-50-50E, Aukštis: 21 m

Dabartinis oras

Ataskaita buvo paskelbta 28 minutes, ne 01:50 UTC
Vėjas 25 kt iš Vakarų/Šiaurės Vakarų
Temperatūra 1°C
Drėgmė 75%
Slėgis 1001 hPa
Matomumas 10 km arba daugiau

METAR: ESTA 200150Z AUTO 30025KT 9999 OVC064/// 01/M03 Q1001

Laikas: 03:18 (02:18 UTC)

Prognozė

Ataskaita buvo paskelbta 9 valandos ir 14 minutes, ne 17:04 UTC
Prognozė galioja nuo 19 metu 18 UTC su 19 metu 20 UTC
Vėjas 15 kt iš Pietų/Pietvakarių
Matomumas: 2500 m
Su prošvaistėmis ne aukštis 400 ft
lietus, dulksna, rūkana
Laikinai
nuo 19 metu 18 UTC su 19 metu 20 UTC
Matomumas: 8000 m
Išsisklaidę debesys ne aukštis 400 ft
Su prošvaistėmis ne aukštis 800 ft
lietus, dulksna
Tapsmas
nuo 19 metu 18 UTC su 19 metu 20 UTC
Vėjas 25 kt iš Šiaurės Vakarų su gūsio iki 40 kt

TAF: ESTA 191704Z 1918/1920 20015KT 2500 RADZ BR BKN004 TEMPO 1918/1920 8000 -RADZ SCT004 BKN008 BECMG 1918/1920 31025G40KT

Orai ataskaitas ir orų prognozės (METAR, TAF).

turimą stotys yra geltonos ir raudonos taškus žemėlapyje.

Perkelti pele per norėdami pamatyti stoties vardą.

Tada spustelėkite, norėdami matyti oro stebėjimo ir prognozės.

Norėdami pakeisti žemėlapį: spustelėkite ant žalios mygtukų su juodo kryžiaus žemyn,; žalią mygtuką su brūkšneliu, jei norite nutolinti; arba žalių rodyklių gretimoms žemėlapius.


METAR-TAF: